sensor_id;sensor_type;location;lat;lon;timestamp;P1;durP1;ratioP1;P2;durP2;ratioP2
36189;SDS011;22232;50.914;13.858;2023-01-23T00:01:28;204.93;;;34.10;;
36189;SDS011;22232;50.914;13.858;2023-01-23T00:03:58;470.05;;;50.20;;
36189;SDS011;22232;50.914;13.858;2023-01-23T00:06:27;369.27;;;45.97;;
36189;SDS011;22232;50.914;13.858;2023-01-23T00:08:55;613.88;;;62.10;;
36189;SDS011;22232;50.914;13.858;2023-01-23T00:11:24;501.77;;;53.45;;
36189;SDS011;22232;50.914;13.858;2023-01-23T00:13:53;512.47;;;54.47;;
36189;SDS011;22232;50.914;13.858;2023-01-23T00:16:24;504.70;;;52.30;;
36189;SDS011;22232;50.914;13.858;2023-01-23T00:18:52;684.67;;;68.15;;
36189;SDS011;22232;50.914;13.858;2023-01-23T00:21:22;414.30;;;49.95;;
36189;SDS011;22232;50.914;13.858;2023-01-23T00:23:53;644.53;;;68.90;;
36189;SDS011;22232;50.914;13.858;2023-01-23T00:26:22;641.80;;;68.88;;
36189;SDS011;22232;50.914;13.858;2023-01-23T00:28:52;682.33;;;68.32;;
36189;SDS011;22232;50.914;13.858;2023-01-23T00:31:25;716.15;;;72.38;;
36189;SDS011;22232;50.914;13.858;2023-01-23T00:33:55;280.15;;;39.50;;
36189;SDS011;22232;50.914;13.858;2023-01-23T00:36:29;557.45;;;60.03;;
36189;SDS011;22232;50.914;13.858;2023-01-23T00:38:59;659.92;;;68.43;;
36189;SDS011;22232;50.914;13.858;2023-01-23T00:41:27;556.60;;;57.03;;
36189;SDS011;22232;50.914;13.858;2023-01-23T00:43:55;580.92;;;60.47;;
36189;SDS011;22232;50.914;13.858;2023-01-23T00:46:23;842.97;;;81.85;;
36189;SDS011;22232;50.914;13.858;2023-01-23T00:48:51;895.55;;;85.05;;
36189;SDS011;22232;50.914;13.858;2023-01-23T00:51:18;890.90;;;88.57;;
36189;SDS011;22232;50.914;13.858;2023-01-23T00:53:46;909.65;;;88.82;;
36189;SDS011;22232;50.914;13.858;2023-01-23T00:56:14;554.42;;;64.10;;
36189;SDS011;22232;50.914;13.858;2023-01-23T00:58:42;554.20;;;58.08;;
36189;SDS011;22232;50.914;13.858;2023-01-23T01:01:12;731.00;;;72.65;;
36189;SDS011;22232;50.914;13.858;2023-01-23T01:03:41;739.75;;;70.25;;
36189;SDS011;22232;50.914;13.858;2023-01-23T01:06:10;513.60;;;56.35;;
36189;SDS011;22232;50.914;13.858;2023-01-23T01:08:38;780.15;;;81.65;;
36189;SDS011;22232;50.914;13.858;2023-01-23T01:11:06;776.92;;;74.30;;
36189;SDS011;22232;50.914;13.858;2023-01-23T01:13:34;742.97;;;68.38;;
36189;SDS011;22232;50.914;13.858;2023-01-23T01:16:02;786.17;;;79.00;;
36189;SDS011;22232;50.914;13.858;2023-01-23T01:18:30;636.90;;;59.95;;
36189;SDS011;22232;50.914;13.858;2023-01-23T01:20:57;918.95;;;91.50;;
36189;SDS011;22232;50.914;13.858;2023-01-23T01:23:25;482.63;;;49.65;;
36189;SDS011;22232;50.914;13.858;2023-01-23T01:25:56;532.22;;;53.67;;
36189;SDS011;22232;50.914;13.858;2023-01-23T01:28:25;574.72;;;58.72;;
36189;SDS011;22232;50.914;13.858;2023-01-23T01:30:56;633.30;;;63.05;;
36189;SDS011;22232;50.914;13.858;2023-01-23T01:33:26;438.70;;;48.58;;
36189;SDS011;22232;50.914;13.858;2023-01-23T01:35:55;723.25;;;66.15;;
36189;SDS011;22232;50.914;13.858;2023-01-23T01:38:23;352.70;;;45.15;;
36189;SDS011;22232;50.914;13.858;2023-01-23T01:40:50;709.88;;;72.40;;
36189;SDS011;22232;50.914;13.858;2023-01-23T01:43:19;629.05;;;55.30;;
36189;SDS011;22232;50.914;13.858;2023-01-23T01:45:58;652.65;;;59.90;;
36189;SDS011;22232;50.914;13.858;2023-01-23T01:48:40;853.05;;;80.28;;
36189;SDS011;22232;50.914;13.858;2023-01-23T01:54:16;793.60;;;70.93;;
36189;SDS011;22232;50.914;13.858;2023-01-23T01:56:56;587.30;;;53.13;;
36189;SDS011;22232;50.914;13.858;2023-01-23T02:01:59;672.88;;;57.67;;
36189;SDS011;22232;50.914;13.858;2023-01-23T02:04:32;791.50;;;75.40;;
36189;SDS011;22232;50.914;13.858;2023-01-23T02:07:04;615.15;;;55.00;;
36189;SDS011;22232;50.914;13.858;2023-01-23T02:09:35;708.13;;;65.72;;
36189;SDS011;22232;50.914;13.858;2023-01-23T02:12:04;681.88;;;58.97;;
36189;SDS011;22232;50.914;13.858;2023-01-23T02:14:32;609.20;;;53.05;;
36189;SDS011;22232;50.914;13.858;2023-01-23T02:16:59;552.25;;;51.88;;
36189;SDS011;22232;50.914;13.858;2023-01-23T02:25:36;577.85;;;49.67;;
36189;SDS011;22232;50.914;13.858;2023-01-23T02:28:15;610.67;;;56.08;;
36189;SDS011;22232;50.914;13.858;2023-01-23T02:30:45;676.78;;;58.42;;
36189;SDS011;22232;50.914;13.858;2023-01-23T02:35:49;732.65;;;67.53;;
36189;SDS011;22232;50.914;13.858;2023-01-23T02:38:18;729.83;;;64.90;;
36189;SDS011;22232;50.914;13.858;2023-01-23T02:40:49;487.45;;;50.15;;
36189;SDS011;22232;50.914;13.858;2023-01-23T02:43:21;533.03;;;45.60;;
36189;SDS011;22232;50.914;13.858;2023-01-23T02:46:06;416.65;;;43.47;;
36189;SDS011;22232;50.914;13.858;2023-01-23T02:48:36;351.30;;;35.25;;
36189;SDS011;22232;50.914;13.858;2023-01-23T02:51:06;476.50;;;45.85;;
36189;SDS011;22232;50.914;13.858;2023-01-23T02:53:33;487.55;;;45.70;;
36189;SDS011;22232;50.914;13.858;2023-01-23T02:56:01;569.28;;;52.38;;
36189;SDS011;22232;50.914;13.858;2023-01-23T02:58:29;631.45;;;57.92;;
36189;SDS011;22232;50.914;13.858;2023-01-23T03:01:14;535.95;;;51.38;;
36189;SDS011;22232;50.914;13.858;2023-01-23T03:03:42;678.47;;;61.70;;
36189;SDS011;22232;50.914;13.858;2023-01-23T03:06:10;339.67;;;39.17;;
36189;SDS011;22232;50.914;13.858;2023-01-23T03:08:38;542.35;;;53.13;;
36189;SDS011;22232;50.914;13.858;2023-01-23T03:11:15;718.40;;;70.15;;
36189;SDS011;22232;50.914;13.858;2023-01-23T03:13:44;541.92;;;52.60;;
36189;SDS011;22232;50.914;13.858;2023-01-23T03:16:13;466.38;;;45.63;;
36189;SDS011;22232;50.914;13.858;2023-01-23T03:18:41;697.72;;;67.40;;
36189;SDS011;22232;50.914;13.858;2023-01-23T03:21:20;499.73;;;48.67;;
36189;SDS011;22232;50.914;13.858;2023-01-23T03:23:48;351.35;;;36.05;;
36189;SDS011;22232;50.914;13.858;2023-01-23T03:26:17;740.67;;;63.85;;
36189;SDS011;22232;50.914;13.858;2023-01-23T03:28:46;506.50;;;55.83;;
36189;SDS011;22232;50.914;13.858;2023-01-23T03:31:34;613.63;;;56.72;;
36189;SDS011;22232;50.914;13.858;2023-01-23T03:34:02;488.58;;;43.13;;
36189;SDS011;22232;50.914;13.858;2023-01-23T03:36:33;713.75;;;65.15;;
36189;SDS011;22232;50.914;13.858;2023-01-23T03:39:06;597.80;;;55.72;;
36189;SDS011;22232;50.914;13.858;2023-01-23T03:41:53;602.15;;;58.50;;
36189;SDS011;22232;50.914;13.858;2023-01-23T03:44:23;519.80;;;51.55;;
36189;SDS011;22232;50.914;13.858;2023-01-23T03:46:51;460.25;;;49.55;;
36189;SDS011;22232;50.914;13.858;2023-01-23T03:49:19;358.30;;;40.15;;
36189;SDS011;22232;50.914;13.858;2023-01-23T03:51:53;867.65;;;81.75;;
36189;SDS011;22232;50.914;13.858;2023-01-23T03:54:21;853.10;;;80.57;;
36189;SDS011;22232;50.914;13.858;2023-01-23T03:56:49;497.58;;;49.53;;
36189;SDS011;22232;50.914;13.858;2023-01-23T03:59:35;561.03;;;52.17;;
36189;SDS011;22232;50.914;13.858;2023-01-23T04:02:03;647.53;;;69.95;;
36189;SDS011;22232;50.914;13.858;2023-01-23T04:04:32;617.95;;;56.55;;
36189;SDS011;22232;50.914;13.858;2023-01-23T04:07:04;759.53;;;82.35;;
36189;SDS011;22232;50.914;13.858;2023-01-23T04:09:33;323.58;;;38.00;;
36189;SDS011;22232;50.914;13.858;2023-01-23T04:12:01;317.25;;;41.85;;
36189;SDS011;22232;50.914;13.858;2023-01-23T04:14:31;564.55;;;58.88;;
36189;SDS011;22232;50.914;13.858;2023-01-23T04:17:04;506.85;;;56.10;;
36189;SDS011;22232;50.914;13.858;2023-01-23T04:19:32;734.08;;;77.65;;
36189;SDS011;22232;50.914;13.858;2023-01-23T04:22:01;663.60;;;65.68;;
36189;SDS011;22232;50.914;13.858;2023-01-23T04:24:34;632.20;;;67.63;;
36189;SDS011;22232;50.914;13.858;2023-01-23T04:27:02;587.47;;;60.65;;
36189;SDS011;22232;50.914;13.858;2023-01-23T04:29:30;825.55;;;83.20;;
36189;SDS011;22232;50.914;13.858;2023-01-23T04:31:58;797.22;;;75.25;;
36189;SDS011;22232;50.914;13.858;2023-01-23T04:34:27;492.67;;;55.17;;
36189;SDS011;22232;50.914;13.858;2023-01-23T04:36:56;499.48;;;51.40;;
36189;SDS011;22232;50.914;13.858;2023-01-23T04:39:24;602.78;;;54.25;;
36189;SDS011;22232;50.914;13.858;2023-01-23T04:41:52;519.72;;;50.90;;
36189;SDS011;22232;50.914;13.858;2023-01-23T04:44:40;644.67;;;60.22;;
36189;SDS011;22232;50.914;13.858;2023-01-23T04:47:33;244.95;;;31.35;;
36189;SDS011;22232;50.914;13.858;2023-01-23T04:50:04;427.63;;;41.75;;
36189;SDS011;22232;50.914;13.858;2023-01-23T04:52:34;632.00;;;60.70;;
36189;SDS011;22232;50.914;13.858;2023-01-23T04:55:02;539.13;;;48.53;;
36189;SDS011;22232;50.914;13.858;2023-01-23T04:57:30;552.55;;;52.85;;
36189;SDS011;22232;50.914;13.858;2023-01-23T05:00:11;578.95;;;56.97;;
36189;SDS011;22232;50.914;13.858;2023-01-23T05:02:40;436.98;;;45.78;;
36189;SDS011;22232;50.914;13.858;2023-01-23T05:05:08;549.80;;;51.88;;
36189;SDS011;22232;50.914;13.858;2023-01-23T05:07:36;573.70;;;55.33;;
36189;SDS011;22232;50.914;13.858;2023-01-23T05:10:11;507.17;;;51.50;;
36189;SDS011;22232;50.914;13.858;2023-01-23T05:12:41;468.65;;;47.40;;
36189;SDS011;22232;50.914;13.858;2023-01-23T05:15:09;505.92;;;50.28;;
36189;SDS011;22232;50.914;13.858;2023-01-23T05:17:39;473.30;;;49.10;;
36189;SDS011;22232;50.914;13.858;2023-01-23T05:20:08;559.50;;;56.38;;
36189;SDS011;22232;50.914;13.858;2023-01-23T05:22:38;455.80;;;51.92;;
36189;SDS011;22232;50.914;13.858;2023-01-23T05:25:21;526.47;;;52.42;;
36189;SDS011;22232;50.914;13.858;2023-01-23T05:27:51;553.70;;;52.78;;
36189;SDS011;22232;50.914;13.858;2023-01-23T05:30:20;627.38;;;60.85;;
36189;SDS011;22232;50.914;13.858;2023-01-23T05:32:52;463.13;;;48.28;;
36189;SDS011;22232;50.914;13.858;2023-01-23T05:35:21;736.30;;;70.05;;
36189;SDS011;22232;50.914;13.858;2023-01-23T05:37:49;505.38;;;52.53;;
36189;SDS011;22232;50.914;13.858;2023-01-23T05:40:21;597.78;;;58.35;;
36189;SDS011;22232;50.914;13.858;2023-01-23T05:43:18;757.28;;;74.82;;
36189;SDS011;22232;50.914;13.858;2023-01-23T05:46:04;614.15;;;56.03;;
36189;SDS011;22232;50.914;13.858;2023-01-23T05:48:49;928.47;;;93.57;;
36189;SDS011;22232;50.914;13.858;2023-01-23T05:51:19;543.08;;;52.92;;
36189;SDS011;22232;50.914;13.858;2023-01-23T05:53:47;694.58;;;74.18;;
36189;SDS011;22232;50.914;13.858;2023-01-23T05:56:16;640.78;;;61.38;;
36189;SDS011;22232;50.914;13.858;2023-01-23T05:59:03;714.70;;;67.68;;
36189;SDS011;22232;50.914;13.858;2023-01-23T06:01:57;534.65;;;54.70;;
36189;SDS011;22232;50.914;13.858;2023-01-23T06:04:47;868.75;;;82.43;;
36189;SDS011;22232;50.914;13.858;2023-01-23T06:07:25;617.72;;;61.70;;
36189;SDS011;22232;50.914;13.858;2023-01-23T06:09:56;781.90;;;76.72;;
36189;SDS011;22232;50.914;13.858;2023-01-23T06:12:24;593.95;;;58.60;;
36189;SDS011;22232;50.914;13.858;2023-01-23T06:14:52;415.25;;;48.60;;
36189;SDS011;22232;50.914;13.858;2023-01-23T06:17:19;496.83;;;53.55;;
36189;SDS011;22232;50.914;13.858;2023-01-23T06:19:47;619.35;;;60.70;;
36189;SDS011;22232;50.914;13.858;2023-01-23T06:22:15;413.40;;;43.85;;
36189;SDS011;22232;50.914;13.858;2023-01-23T06:25:02;254.40;;;32.25;;
36189;SDS011;22232;50.914;13.858;2023-01-23T06:27:30;144.65;;;28.70;;
36189;SDS011;22232;50.914;13.858;2023-01-23T06:30:02;740.38;;;71.22;;
36189;SDS011;22232;50.914;13.858;2023-01-23T06:32:35;912.40;;;91.40;;
36189;SDS011;22232;50.914;13.858;2023-01-23T06:35:04;800.63;;;81.70;;
36189;SDS011;22232;50.914;13.858;2023-01-23T06:37:36;865.90;;;88.32;;
36189;SDS011;22232;50.914;13.858;2023-01-23T06:40:05;772.20;;;76.88;;
36189;SDS011;22232;50.914;13.858;2023-01-23T06:42:34;639.80;;;68.25;;
36189;SDS011;22232;50.914;13.858;2023-01-23T06:45:01;746.78;;;75.32;;
36189;SDS011;22232;50.914;13.858;2023-01-23T06:47:30;797.40;;;81.22;;
36189;SDS011;22232;50.914;13.858;2023-01-23T06:49:59;771.47;;;80.43;;
36189;SDS011;22232;50.914;13.858;2023-01-23T06:52:31;549.67;;;60.63;;
36189;SDS011;22232;50.914;13.858;2023-01-23T06:54:59;753.08;;;78.70;;
36189;SDS011;22232;50.914;13.858;2023-01-23T06:57:27;731.45;;;75.70;;
36189;SDS011;22232;50.914;13.858;2023-01-23T06:59:56;587.47;;;61.08;;
36189;SDS011;22232;50.914;13.858;2023-01-23T07:02:23;488.13;;;56.55;;
36189;SDS011;22232;50.914;13.858;2023-01-23T07:04:51;150.18;;;30.88;;
36189;SDS011;22232;50.914;13.858;2023-01-23T07:07:19;280.15;;;40.28;;
36189;SDS011;22232;50.914;13.858;2023-01-23T07:09:49;446.75;;;51.30;;
36189;SDS011;22232;50.914;13.858;2023-01-23T07:12:19;414.88;;;49.70;;
36189;SDS011;22232;50.914;13.858;2023-01-23T07:14:46;219.88;;;34.38;;
36189;SDS011;22232;50.914;13.858;2023-01-23T07:17:19;142.23;;;30.05;;
36189;SDS011;22232;50.914;13.858;2023-01-23T07:19:46;277.02;;;38.25;;
36189;SDS011;22232;50.914;13.858;2023-01-23T07:22:17;269.25;;;34.47;;
36189;SDS011;22232;50.914;13.858;2023-01-23T07:24:46;541.28;;;57.38;;
36189;SDS011;22232;50.914;13.858;2023-01-23T07:27:14;314.10;;;41.00;;
36189;SDS011;22232;50.914;13.858;2023-01-23T07:29:42;374.50;;;44.17;;
36189;SDS011;22232;50.914;13.858;2023-01-23T07:32:10;496.73;;;51.13;;
36189;SDS011;22232;50.914;13.858;2023-01-23T07:34:38;655.30;;;72.78;;
36189;SDS011;22232;50.914;13.858;2023-01-23T07:37:05;705.13;;;73.40;;
36189;SDS011;22232;50.914;13.858;2023-01-23T07:39:33;605.60;;;64.65;;
36189;SDS011;22232;50.914;13.858;2023-01-23T07:42:01;599.83;;;62.47;;
36189;SDS011;22232;50.914;13.858;2023-01-23T07:44:28;251.77;;;41.85;;
36189;SDS011;22232;50.914;13.858;2023-01-23T07:46:56;524.85;;;60.03;;
36189;SDS011;22232;50.914;13.858;2023-01-23T07:49:23;257.80;;;40.42;;
36189;SDS011;22232;50.914;13.858;2023-01-23T07:51:51;331.17;;;39.38;;
36189;SDS011;22232;50.914;13.858;2023-01-23T07:54:19;658.67;;;71.07;;
36189;SDS011;22232;50.914;13.858;2023-01-23T07:56:49;555.38;;;60.22;;
36189;SDS011;22232;50.914;13.858;2023-01-23T07:59:17;338.48;;;46.85;;
36189;SDS011;22232;50.914;13.858;2023-01-23T08:01:44;527.47;;;61.50;;
36189;SDS011;22232;50.914;13.858;2023-01-23T08:04:12;761.47;;;81.50;;
36189;SDS011;22232;50.914;13.858;2023-01-23T08:06:39;730.42;;;75.82;;
36189;SDS011;22232;50.914;13.858;2023-01-23T08:09:07;681.25;;;74.20;;
36189;SDS011;22232;50.914;13.858;2023-01-23T08:11:35;699.38;;;74.65;;
36189;SDS011;22232;50.914;13.858;2023-01-23T08:14:02;714.83;;;78.22;;
36189;SDS011;22232;50.914;13.858;2023-01-23T08:16:30;689.42;;;86.38;;
36189;SDS011;22232;50.914;13.858;2023-01-23T08:18:57;604.33;;;76.80;;
36189;SDS011;22232;50.914;13.858;2023-01-23T08:21:25;809.38;;;90.65;;
36189;SDS011;22232;50.914;13.858;2023-01-23T08:23:53;652.53;;;77.95;;
36189;SDS011;22232;50.914;13.858;2023-01-23T08:26:20;796.55;;;87.35;;
36189;SDS011;22232;50.914;13.858;2023-01-23T08:28:48;744.25;;;83.93;;
36189;SDS011;22232;50.914;13.858;2023-01-23T08:31:15;838.20;;;92.05;;
36189;SDS011;22232;50.914;13.858;2023-01-23T08:33:43;631.05;;;78.35;;
36189;SDS011;22232;50.914;13.858;2023-01-23T08:36:11;718.58;;;81.60;;
36189;SDS011;22232;50.914;13.858;2023-01-23T08:38:40;831.55;;;87.45;;
36189;SDS011;22232;50.914;13.858;2023-01-23T08:41:08;770.38;;;85.38;;
36189;SDS011;22232;50.914;13.858;2023-01-23T08:43:38;823.17;;;91.18;;
36189;SDS011;22232;50.914;13.858;2023-01-23T08:46:07;854.25;;;96.03;;
36189;SDS011;22232;50.914;13.858;2023-01-23T08:48:36;716.13;;;80.65;;
36189;SDS011;22232;50.914;13.858;2023-01-23T08:51:07;780.22;;;88.78;;
36189;SDS011;22232;50.914;13.858;2023-01-23T08:53:39;735.20;;;83.43;;
36189;SDS011;22232;50.914;13.858;2023-01-23T08:56:12;755.22;;;84.43;;
36189;SDS011;22232;50.914;13.858;2023-01-23T08:58:43;785.90;;;89.07;;
36189;SDS011;22232;50.914;13.858;2023-01-23T09:01:13;684.35;;;74.75;;
36189;SDS011;22232;50.914;13.858;2023-01-23T09:03:42;511.42;;;64.38;;
36189;SDS011;22232;50.914;13.858;2023-01-23T09:06:10;901.25;;;100.43;;
36189;SDS011;22232;50.914;13.858;2023-01-23T09:08:39;739.63;;;79.60;;
36189;SDS011;22232;50.914;13.858;2023-01-23T09:11:07;812.90;;;88.03;;
36189;SDS011;22232;50.914;13.858;2023-01-23T09:13:36;540.67;;;65.13;;
36189;SDS011;22232;50.914;13.858;2023-01-23T09:16:05;769.20;;;82.90;;
36189;SDS011;22232;50.914;13.858;2023-01-23T09:18:34;781.22;;;81.22;;
36189;SDS011;22232;50.914;13.858;2023-01-23T09:21:06;790.08;;;84.80;;
36189;SDS011;22232;50.914;13.858;2023-01-23T09:26:07;667.17;;;71.18;;
36189;SDS011;22232;50.914;13.858;2023-01-23T09:28:37;684.03;;;74.13;;
36189;SDS011;22232;50.914;13.858;2023-01-23T09:31:11;689.33;;;72.35;;
36189;SDS011;22232;50.914;13.858;2023-01-23T09:33:39;511.42;;;63.38;;
36189;SDS011;22232;50.914;13.858;2023-01-23T09:36:08;592.95;;;65.72;;
36189;SDS011;22232;50.914;13.858;2023-01-23T09:38:36;604.40;;;64.72;;
36189;SDS011;22232;50.914;13.858;2023-01-23T09:41:15;442.42;;;53.85;;
36189;SDS011;22232;50.914;13.858;2023-01-23T09:46:49;436.63;;;55.80;;
36189;SDS011;22232;50.914;13.858;2023-01-23T09:51:55;521.60;;;60.90;;
36189;SDS011;22232;50.914;13.858;2023-01-23T09:54:31;515.15;;;63.25;;
36189;SDS011;22232;50.914;13.858;2023-01-23T09:57:00;430.75;;;53.50;;
36189;SDS011;22232;50.914;13.858;2023-01-23T09:59:34;296.98;;;44.42;;
36189;SDS011;22232;50.914;13.858;2023-01-23T10:02:24;605.13;;;68.97;;
36189;SDS011;22232;50.914;13.858;2023-01-23T10:04:53;341.25;;;48.72;;
36189;SDS011;22232;50.914;13.858;2023-01-23T10:07:29;310.38;;;46.97;;
36189;SDS011;22232;50.914;13.858;2023-01-23T10:26:18;379.33;;;50.85;;
36189;SDS011;22232;50.914;13.858;2023-01-23T10:28:48;299.90;;;43.08;;
36189;SDS011;22232;50.914;13.858;2023-01-23T10:37:24;191.05;;;38.40;;
36189;SDS011;22232;50.914;13.858;2023-01-23T10:42:41;292.50;;;40.05;;
36189;SDS011;22232;50.914;13.858;2023-01-23T10:45:14;199.07;;;37.58;;
36189;SDS011;22232;50.914;13.858;2023-01-23T10:47:46;165.30;;;35.78;;
36189;SDS011;22232;50.914;13.858;2023-01-23T10:50:32;213.80;;;37.13;;
36189;SDS011;22232;50.914;13.858;2023-01-23T10:56:50;146.00;;;33.45;;
36189;SDS011;22232;50.914;13.858;2023-01-23T10:59:32;212.18;;;35.65;;
36189;SDS011;22232;50.914;13.858;2023-01-23T11:04:41;376.60;;;44.80;;
36189;SDS011;22232;50.914;13.858;2023-01-23T11:07:22;315.65;;;38.95;;
36189;SDS011;22232;50.914;13.858;2023-01-23T11:12:23;337.42;;;42.70;;
36189;SDS011;22232;50.914;13.858;2023-01-23T11:15:12;459.50;;;52.25;;
36189;SDS011;22232;50.914;13.858;2023-01-23T11:17:50;189.02;;;35.65;;
36189;SDS011;22232;50.914;13.858;2023-01-23T11:23:02;522.90;;;59.38;;
36189;SDS011;22232;50.914;13.858;2023-01-23T11:25:40;520.08;;;54.95;;
36189;SDS011;22232;50.914;13.858;2023-01-23T11:31:04;454.40;;;52.78;;
36189;SDS011;22232;50.914;13.858;2023-01-23T11:37:19;526.70;;;61.33;;
36189;SDS011;22232;50.914;13.858;2023-01-23T11:39:50;487.70;;;55.28;;
36189;SDS011;22232;50.914;13.858;2023-01-23T11:42:19;339.88;;;48.10;;
36189;SDS011;22232;50.914;13.858;2023-01-23T11:44:46;392.58;;;50.28;;
36189;SDS011;22232;50.914;13.858;2023-01-23T11:52:56;322.58;;;45.33;;
36189;SDS011;22232;50.914;13.858;2023-01-23T11:56:16;378.13;;;49.67;;
36189;SDS011;22232;50.914;13.858;2023-01-23T12:07:26;197.73;;;37.35;;
36189;SDS011;22232;50.914;13.858;2023-01-23T12:24:18;162.95;;;33.70;;
36189;SDS011;22232;50.914;13.858;2023-01-23T12:41:57;131.73;;;32.28;;
36189;SDS011;22232;50.914;13.858;2023-01-23T12:44:32;121.60;;;33.90;;
36189;SDS011;22232;50.914;13.858;2023-01-23T12:47:08;133.80;;;34.90;;
36189;SDS011;22232;50.914;13.858;2023-01-23T12:50:00;129.18;;;33.20;;
36189;SDS011;22232;50.914;13.858;2023-01-23T12:52:38;134.77;;;32.92;;
36189;SDS011;22232;50.914;13.858;2023-01-23T12:55:21;297.55;;;45.33;;
36189;SDS011;22232;50.914;13.858;2023-01-23T12:57:54;122.35;;;33.67;;
36189;SDS011;22232;50.914;13.858;2023-01-23T13:06:20;366.13;;;52.40;;
36189;SDS011;22232;50.914;13.858;2023-01-23T13:14:50;405.13;;;52.45;;
36189;SDS011;22232;50.914;13.858;2023-01-23T13:20:32;380.10;;;52.83;;
36189;SDS011;22232;50.914;13.858;2023-01-23T13:23:37;373.30;;;52.50;;
36189;SDS011;22232;50.914;13.858;2023-01-23T13:33:53;545.22;;;60.20;;
36189;SDS011;22232;50.914;13.858;2023-01-23T13:41:43;431.35;;;61.40;;
36189;SDS011;22232;50.914;13.858;2023-01-23T13:44:15;513.83;;;63.75;;
36189;SDS011;22232;50.914;13.858;2023-01-23T13:52:57;649.28;;;71.97;;
36189;SDS011;22232;50.914;13.858;2023-01-23T13:56:17;629.10;;;76.35;;
36189;SDS011;22232;50.914;13.858;2023-01-23T14:02:14;740.80;;;85.57;;
36189;SDS011;22232;50.914;13.858;2023-01-23T14:05:20;829.45;;;88.28;;
36189;SDS011;22232;50.914;13.858;2023-01-23T14:08:15;620.78;;;67.85;;
36189;SDS011;22232;50.914;13.858;2023-01-23T14:10:58;769.53;;;83.55;;
36189;SDS011;22232;50.914;13.858;2023-01-23T14:13:49;643.70;;;72.05;;
36189;SDS011;22232;50.914;13.858;2023-01-23T14:16:31;828.65;;;92.93;;
36189;SDS011;22232;50.914;13.858;2023-01-23T14:19:28;1060.65;;;115.00;;
36189;SDS011;22232;50.914;13.858;2023-01-23T14:22:10;829.05;;;91.65;;
36189;SDS011;22232;50.914;13.858;2023-01-23T14:24:52;1094.05;;;113.80;;
36189;SDS011;22232;50.914;13.858;2023-01-23T14:27:26;922.15;;;99.15;;
36189;SDS011;22232;50.914;13.858;2023-01-23T14:30:20;863.42;;;92.75;;
36189;SDS011;22232;50.914;13.858;2023-01-23T14:33:16;854.70;;;97.25;;
36189;SDS011;22232;50.914;13.858;2023-01-23T14:35:44;972.95;;;104.30;;
36189;SDS011;22232;50.914;13.858;2023-01-23T14:38:23;918.00;;;96.75;;
36189;SDS011;22232;50.914;13.858;2023-01-23T14:40:55;744.13;;;84.18;;
36189;SDS011;22232;50.914;13.858;2023-01-23T14:43:26;987.95;;;111.22;;
36189;SDS011;22232;50.914;13.858;2023-01-23T14:45:59;1032.40;;;123.10;;
36189;SDS011;22232;50.914;13.858;2023-01-23T14:48:32;850.85;;;97.80;;
36189;SDS011;22232;50.914;13.858;2023-01-23T14:51:09;1052.68;;;114.30;;
36189;SDS011;22232;50.914;13.858;2023-01-23T14:56:30;926.33;;;99.95;;
36189;SDS011;22232;50.914;13.858;2023-01-23T14:59:04;1055.13;;;116.70;;
36189;SDS011;22232;50.914;13.858;2023-01-23T15:01:34;1132.43;;;126.43;;
36189;SDS011;22232;50.914;13.858;2023-01-23T15:04:03;1014.08;;;108.55;;
36189;SDS011;22232;50.914;13.858;2023-01-23T15:06:33;1187.53;;;128.27;;
36189;SDS011;22232;50.914;13.858;2023-01-23T15:09:13;1099.13;;;123.55;;
36189;SDS011;22232;50.914;13.858;2023-01-23T15:11:44;1193.40;;;129.77;;
36189;SDS011;22232;50.914;13.858;2023-01-23T15:14:25;1057.30;;;112.88;;
36189;SDS011;22232;50.914;13.858;2023-01-23T15:17:01;1087.60;;;119.60;;
36189;SDS011;22232;50.914;13.858;2023-01-23T15:22:24;1007.08;;;111.00;;
36189;SDS011;22232;50.914;13.858;2023-01-23T15:24:53;1179.72;;;126.38;;
36189;SDS011;22232;50.914;13.858;2023-01-23T15:27:31;1102.93;;;118.82;;
36189;SDS011;22232;50.914;13.858;2023-01-23T15:33:00;1245.70;;;119.20;;
36189;SDS011;22232;50.914;13.858;2023-01-23T15:35:33;1078.53;;;114.63;;
36189;SDS011;22232;50.914;13.858;2023-01-23T15:38:03;1253.55;;;129.13;;
36189;SDS011;22232;50.914;13.858;2023-01-23T15:40:35;1060.15;;;111.93;;
36189;SDS011;22232;50.914;13.858;2023-01-23T15:43:08;1341.68;;;136.45;;
36189;SDS011;22232;50.914;13.858;2023-01-23T15:45:44;1039.72;;;114.07;;
36189;SDS011;22232;50.914;13.858;2023-01-23T15:48:12;1155.05;;;116.47;;
36189;SDS011;22232;50.914;13.858;2023-01-23T15:50:40;1195.55;;;120.57;;
36189;SDS011;22232;50.914;13.858;2023-01-23T15:53:11;1188.55;;;131.63;;
36189;SDS011;22232;50.914;13.858;2023-01-23T15:55:40;1235.07;;;131.63;;
36189;SDS011;22232;50.914;13.858;2023-01-23T15:58:12;1108.38;;;116.38;;
36189;SDS011;22232;50.914;13.858;2023-01-23T16:00:41;1067.57;;;112.75;;
36189;SDS011;22232;50.914;13.858;2023-01-23T16:03:08;1241.53;;;136.38;;
36189;SDS011;22232;50.914;13.858;2023-01-23T16:05:36;1151.30;;;125.28;;
36189;SDS011;22232;50.914;13.858;2023-01-23T16:08:04;1130.18;;;116.53;;
36189;SDS011;22232;50.914;13.858;2023-01-23T16:10:38;1397.97;;;144.25;;
36189;SDS011;22232;50.914;13.858;2023-01-23T16:13:08;1436.70;;;147.00;;
36189;SDS011;22232;50.914;13.858;2023-01-23T16:15:39;1231.90;;;125.07;;
36189;SDS011;22232;50.914;13.858;2023-01-23T16:18:08;1267.15;;;132.75;;
36189;SDS011;22232;50.914;13.858;2023-01-23T16:20:40;1315.78;;;138.35;;
36189;SDS011;22232;50.914;13.858;2023-01-23T16:25:41;1157.13;;;130.50;;
36189;SDS011;22232;50.914;13.858;2023-01-23T16:28:12;1203.53;;;129.68;;
36189;SDS011;22232;50.914;13.858;2023-01-23T16:30:42;1260.38;;;134.93;;
36189;SDS011;22232;50.914;13.858;2023-01-23T16:33:11;1495.55;;;158.98;;
36189;SDS011;22232;50.914;13.858;2023-01-23T16:35:39;1208.10;;;131.35;;
36189;SDS011;22232;50.914;13.858;2023-01-23T16:38:13;1195.75;;;134.98;;
36189;SDS011;22232;50.914;13.858;2023-01-23T16:40:50;1231.53;;;134.02;;
36189;SDS011;22232;50.914;13.858;2023-01-23T16:43:20;1642.22;;;182.10;;
36189;SDS011;22232;50.914;13.858;2023-01-23T16:45:48;1232.93;;;138.88;;
36189;SDS011;22232;50.914;13.858;2023-01-23T16:48:20;1597.78;;;170.55;;
36189;SDS011;22232;50.914;13.858;2023-01-23T16:51:04;1401.95;;;145.60;;
36189;SDS011;22232;50.914;13.858;2023-01-23T16:53:35;1542.75;;;166.38;;
36189;SDS011;22232;50.914;13.858;2023-01-23T16:56:05;1143.65;;;124.75;;
36189;SDS011;22232;50.914;13.858;2023-01-23T16:58:34;1264.95;;;128.98;;
36189;SDS011;22232;50.914;13.858;2023-01-23T17:01:13;1297.10;;;138.80;;